»·PEaware :: N179TD KSNA-KAVX

N179TD :: KSNA-KAVX

FLIGHT INFORMATION

Flight Status: Arrived
Operator: Privately registered:
United States
More flights under this callsign
Pilot: Terry D. (17346)
Aircraft: CESSNA 208 CARAVAN
(C208)
More flights by this aircraft type
Origin: KSNA John Wayne-Orange Co
United States
Destination: KAVX Catalina
United States
More flights between these airports :: More routes between these airports
Route: SLI V21 SXC
File this flight plan on PilotEdge
Remarks: I-7
Altitude:
(Current/Filed)
4,000ft
Speed:
(Current/Filed)
182kts
Departed: 06-Jan-18 10:49 PM
Arrived: 06-Jan-18 11:26 PM
Distance/Time
Traveled:
32nm/0:37
Distance/Time
To Go:
Arrived

Flight Plot

Page will automatically refresh every two minutes.


Map Options




Map Legend


Flown Route
Filed Route
Departure Airport
Arrival Airport
Navaid (VOR, NDB)
Fix

Horizontal Profiles

Position Reports

Time Latitude Longitude Heading Altitude Ground
Speed
06-Jan-18 22:31 33.676278 -117.870851 205 61ft 0kts
06-Jan-18 22:32 33.676278 -117.870851 205 61ft 0kts
06-Jan-18 22:33 33.676278 -117.870851 205 61ft 0kts
06-Jan-18 22:34 33.676278 -117.870851 205 61ft 0kts
06-Jan-18 22:35 33.676278 -117.870851 205 61ft 0kts
06-Jan-18 22:36 33.676278 -117.870851 205 61ft 0kts
06-Jan-18 22:37 33.676278 -117.870851 205 61ft 0kts
06-Jan-18 22:38 33.676278 -117.870851 205 61ft 0kts
06-Jan-18 22:39 33.676278 -117.870851 205 61ft 0kts
06-Jan-18 22:40 33.676278 -117.870851 205 61ft 0kts
06-Jan-18 22:41 33.676278 -117.870851 205 61ft 0kts
06-Jan-18 22:42 33.676278 -117.870851 205 61ft 0kts
06-Jan-18 22:43 33.676278 -117.870851 205 61ft 0kts
06-Jan-18 22:44 33.676278 -117.870851 205 61ft 0kts
06-Jan-18 22:45 33.674861 -117.871284 181 61ft 2kts
06-Jan-18 22:46 33.674277 -117.871306 181 61ft 1kts
06-Jan-18 22:47 33.673747 -117.871326 181 61ft 0kts
06-Jan-18 22:48 33.673747 -117.871326 181 61ft 0kts
06-Jan-18 22:49 33.673747 -117.871326 181 61ft 0kts
06-Jan-18 22:50 33.673747 -117.871326 181 61ft 0kts
06-Jan-18 22:51 33.673638 -117.871655 311 61ft 0kts
06-Jan-18 22:52 33.675754 -117.870335 31 61ft 11kts
06-Jan-18 22:53 33.681069 -117.867120 30 61ft 5kts
06-Jan-18 22:54 33.681266 -117.866528 101 61ft 0kts
06-Jan-18 22:55 33.677405 -117.867711 207 61ft 70kts
06-Jan-18 22:56 33.654251 -117.886843 231 1191ft 111kts
06-Jan-18 22:57 33.632571 -117.918684 231 2074ft 138kts
06-Jan-18 22:58 33.608072 -117.955949 231 2797ft 147kts
06-Jan-18 22:59 33.575773 -117.986160 212 3522ft 150kts
06-Jan-18 23:00 33.539235 -118.012145 212 4011ft 163kts
06-Jan-18 23:01 33.498845 -118.040860 212 4012ft 173kts
06-Jan-18 23:02 33.457167 -118.070551 212 4013ft 175kts
06-Jan-18 23:03 33.415123 -118.100367 212 4019ft 175kts
06-Jan-18 23:04 33.392156 -118.144083 267 4028ft 167kts
06-Jan-18 23:05 33.388873 -118.199579 268 4004ft 167kts
06-Jan-18 23:06 33.385581 -118.253592 268 4009ft 165kts
06-Jan-18 23:07 33.382196 -118.307946 268 4013ft 164kts
06-Jan-18 23:08 33.378759 -118.362246 268 4013ft 161kts
06-Jan-18 23:09 33.381358 -118.411775 323 4013ft 149kts
06-Jan-18 23:10 33.422528 -118.413193 4 4015ft 153kts
06-Jan-18 23:11 33.464778 -118.405906 4 3932ft 158kts
06-Jan-18 23:12 33.510594 -118.399277 346 3228ft 168kts
06-Jan-18 23:13 33.549048 -118.428794 4 2525ft 171kts
06-Jan-18 23:14 33.563135 -118.387640 148 1839ft 173kts
06-Jan-18 23:15 33.518294 -118.394886 194 1260ft 154kts
06-Jan-18 23:16 33.482129 -118.402781 191 1924ft 119kts
06-Jan-18 23:17 33.447851 -118.408784 190 1933ft 121kts
06-Jan-18 23:18 33.422628 -118.404454 135 1772ft 89kts
06-Jan-18 23:19 33.406610 -118.412888 246 1523ft 73kts
06-Jan-18 23:20 33.386404 -118.435307 233 3487ft 115kts
06-Jan-18 23:21 33.405470 -118.474633 327 3615ft 139kts
06-Jan-18 23:22 33.441327 -118.497407 352 2993ft 171kts
06-Jan-18 23:23 33.478814 -118.476096 57 2716ft 156kts
06-Jan-18 23:24 33.505445 -118.434023 40 2571ft 159kts
06-Jan-18 23:25 33.534107 -118.394993 73 2436ft 164kts
06-Jan-18 23:26 33.509073 -118.357783 148 2517ft 131kts
06-Jan-18 23:27 33.485141 -118.335735 162 2583ft 101kts
06-Jan-18 23:28 33.459064 -118.338231 205 2329ft 92kts
06-Jan-18 23:29 33.440003 -118.355999 236 1890ft 80kts
06-Jan-18 23:30 33.427164 -118.377768 239 1714ft 81kts
06-Jan-18 23:31 33.414288 -118.399702 238 1775ft 80kts
06-Jan-18 23:32 33.403693 -118.418024 233 1559ft 2kts
06-Jan-18 23:33 33.402534 -118.419815 202 1554ft 7kts
06-Jan-18 23:34 33.403665 -118.416602 131 1556ft 8kts
06-Jan-18 23:35 33.403377 -118.415369 322 1549ft 0kts
06-Jan-18 23:36 33.403377 -118.415369 322 1549ft 0kts

Navigation Log

Ident Type
1. KSNA Airport
2. SLI Navaid
3. SXC Navaid
4. KAVX Airport